Alto Paraiso de Goias, Brazil
Current Conditions -  °F | °C
As of 9:00 PM on Wednesday 26 Nov 2014 (Local Time) from SBBR Reporting Station
Broken Clouds Broken Clouds  
Wind Chill: 25°   Ceiling: 8000
Heat Index: 26°   Visibility: 6mi
Dew Point: 17°   Wind: 3mph
Humidity: 61%   Direction: 10°N
Pressure: 30"   Gusts: NA
Location:  14.12°S, 47.52°W
Report Text: SBBR 262300Z 01003KT 9999 SCT030 FEW040TCU BKN080 25/17 Q1016
Loading
Personal Weather Stations






























Interactive Weather Map New forecast layout! Learn more

10-Day Weather Forecast

Advertisements
Track Severe Weather on mobile